Time;durP1;ratioP1;P1;durP2;ratioP2;P2;SDS_P1;SDS_P2;PMS_P1;PMS_P2;Temp;Humidity;BMP_temperature;BMP_pressure;BME280_temperature;BME280_humidity;BME280_pressure;Samples;Min_cycle;Max_cycle;Signal;HPM_P1;HPM_P2
2023/05/03 00:00:39;;;;;;;7.18;2.70;;;6.80;99.90;;;;;;5075559;28;20044;-79
2023/05/03 00:03:05;;;;;;;16.27;3.03;;;6.80;99.90;;;;;;5092997;28;20044;-79
2023/05/03 00:05:31;;;;;;;6.60;3.38;;;6.90;99.90;;;;;;5059189;28;20070;-79
2023/05/03 00:07:57;;;;;;;4.80;2.63;;;6.70;99.90;;;;;;5092546;28;20078;-78
2023/05/03 00:10:23;;;;;;;8.20;2.75;;;6.70;99.90;;;;;;5090256;28;20052;-78
2023/05/03 00:12:49;;;;;;;4.60;2.88;;;6.70;99.90;;;;;;5092063;28;20097;-78
2023/05/03 00:15:15;;;;;;;4.00;2.70;;;6.60;99.90;;;;;;5092388;28;20479;-79
2023/05/03 00:17:41;;;;;;;7.95;3.72;;;6.60;99.90;;;;;;5092015;28;20071;-79
2023/05/03 00:20:08;;;;;;;4.23;3.30;;;6.60;99.90;;;;;;5075398;28;20040;-78
2023/05/03 00:22:35;;;;;;;6.32;2.67;;;6.50;99.90;;;;;;5075532;28;20278;-79
2023/05/03 00:25:01;;;;;;;7.00;3.00;;;6.50;99.90;;;;;;5091775;28;20399;-79
2023/05/03 00:27:27;;;;;;;7.20;2.83;;;6.60;99.90;;;;;;5075324;28;20103;-79
2023/05/03 00:29:53;;;;;;;3.80;2.75;;;6.50;99.90;;;;;;5092243;28;20436;-78
2023/05/03 00:32:22;;;;;;;4.47;2.80;;;6.60;99.90;;;;;;5092232;28;20067;-79
2023/05/03 00:34:55;;;;;;;6.75;3.15;;;6.60;99.90;;;;;;5074797;28;20280;-78
2023/05/03 00:37:22;;;;;;;4.82;2.60;;;6.60;99.90;;;;;;5075493;28;20040;-78
2023/05/03 00:39:48;;;;;;;5.68;3.20;;;6.60;99.90;;;;;;5091845;28;20111;-78
2023/05/03 00:42:14;;;;;;;3.90;2.80;;;6.70;99.90;;;;;;5089501;28;20123;-79
2023/05/03 00:44:39;;;;;;;6.50;3.00;;;6.80;99.90;;;;;;5075231;28;20046;-79
2023/05/03 00:47:05;;;;;;;6.32;3.08;;;6.70;99.90;;;;;;5091676;28;20059;-79
2023/05/03 00:49:32;;;;;;;3.60;2.80;;;6.80;99.90;;;;;;5075582;28;20097;-79
2023/05/03 00:51:58;;;;;;;7.03;3.60;;;6.80;99.90;;;;;;5074674;28;20081;-79
2023/05/03 00:54:27;;;;;;;8.68;3.28;;;6.80;99.90;;;;;;5091473;28;21237;-78
2023/05/03 00:56:52;;;;;;;4.63;3.15;;;6.90;99.90;;;;;;5074060;28;20079;-78
2023/05/03 00:59:19;;;;;;;5.60;2.80;;;6.90;99.90;;;;;;5091516;28;21543;-78
2023/05/03 01:01:49;;;;;;;6.03;3.10;;;7.00;99.90;;;;;;5091331;28;20024;-78
2023/05/03 01:04:16;;;;;;;5.50;2.70;;;7.00;99.90;;;;;;5091609;28;20047;-78
2023/05/03 01:07:13;;;;;;;4.35;3.10;;;7.00;99.90;;;;;;5074830;28;20526;-79
2023/05/03 01:10:05;;;;;;;7.35;3.28;;;7.10;99.90;;;;;;5091448;28;20040;-79
2023/05/03 01:12:54;;;;;;;4.03;3.25;;;7.10;99.90;;;;;;5091439;28;20446;-78
2023/05/03 01:15:35;;;;;;;6.22;2.83;;;7.20;99.90;;;;;;5072609;28;20074;-79
2023/05/03 01:18:11;;;;;;;5.95;3.67;;;7.10;99.90;;;;;;5091031;28;20036;-79
2023/05/03 01:20:38;;;;;;;4.38;2.90;;;7.10;99.90;;;;;;5091474;28;20035;-79
2023/05/03 01:23:29;;;;;;;7.88;2.88;;;7.10;99.90;;;;;;5074399;28;20522;-79
2023/05/03 01:25:55;;;;;;;5.47;3.20;;;7.10;99.90;;;;;;5089104;28;20388;-79
2023/05/03 01:28:21;;;;;;;4.80;2.83;;;7.00;99.90;;;;;;5091258;28;20065;-79
2023/05/03 01:30:49;;;;;;;5.50;2.90;;;7.10;99.90;;;;;;5056143;28;20459;-77
2023/05/03 01:33:27;;;;;;;4.45;2.95;;;7.10;99.90;;;;;;5090941;28;20055;-78
2023/05/03 01:35:56;;;;;;;4.50;3.05;;;7.10;99.90;;;;;;5090595;28;20040;-78
2023/05/03 01:38:22;;;;;;;4.78;2.70;;;7.00;99.90;;;;;;5091019;28;20622;-79
2023/05/03 01:40:53;;;;;;;4.43;2.65;;;7.00;99.90;;;;;;5090254;28;20036;-78
2023/05/03 01:43:22;;;;;;;11.77;4.03;;;7.00;99.90;;;;;;5088574;28;20043;-78
2023/05/03 01:45:50;;;;;;;5.82;2.83;;;7.00;99.90;;;;;;5090232;28;20454;-78
2023/05/03 01:48:17;;;;;;;3.72;3.00;;;7.00;99.90;;;;;;5073464;28;20487;-79
2023/05/03 01:50:44;;;;;;;5.57;2.67;;;7.00;99.90;;;;;;5074083;28;20075;-79
2023/05/03 01:53:10;;;;;;;;;;;6.90;99.90;;;;;;5090835;28;20160;-79
2023/05/03 01:55:35;;;;;;;6.50;2.85;;;6.90;99.90;;;;;;5073542;28;19934;-78
2023/05/03 01:58:01;;;;;;;6.53;2.77;;;6.90;99.90;;;;;;5073137;28;20052;-79
2023/05/03 02:00:27;;;;;;;4.78;2.80;;;6.90;99.90;;;;;;5090625;28;20383;-79
2023/05/03 02:02:53;;;;;;;3.72;2.90;;;6.90;99.90;;;;;;5090310;28;20058;-79
2023/05/03 02:05:18;;;;;;;3.03;2.60;;;6.80;99.90;;;;;;5072923;28;20063;-78
2023/05/03 02:07:44;;;;;;;3.97;2.80;;;6.80;99.90;;;;;;5090437;28;20433;-78
2023/05/03 02:10:13;;;;;;;9.03;2.70;;;6.80;99.90;;;;;;5089926;28;20338;-78
2023/05/03 02:12:40;;;;;;;8.10;3.17;;;6.70;99.90;;;;;;5074453;28;20869;-79
2023/05/03 02:15:06;;;;;;;4.80;3.08;;;6.80;99.90;;;;;;5090451;28;20071;-78
2023/05/03 02:17:33;;;;;;;;;;;6.80;99.90;;;;;;5073806;28;20044;-78
2023/05/03 02:19:58;;;;;;;4.30;2.63;;;6.80;99.90;;;;;;5089466;28;19973;-79
2023/05/03 02:22:24;;;;;;;4.15;2.40;;;6.70;99.90;;;;;;5090096;28;20164;-79
2023/05/03 02:24:50;;;;;;;6.93;2.40;;;6.60;99.90;;;;;;5090268;28;20429;-78
2023/05/03 02:27:16;;;;;;;5.18;2.67;;;6.70;99.90;;;;;;5073193;28;20036;-79
2023/05/03 02:29:42;;;;;;;3.78;2.60;;;6.70;99.90;;;;;;5089851;28;20402;-79
2023/05/03 02:32:07;;;;;;;4.07;2.50;;;6.70;99.90;;;;;;5073094;28;20087;-79
2023/05/03 02:34:33;;;;;;;5.27;2.67;;;6.70;99.90;;;;;;5089934;28;20067;-78
2023/05/03 02:36:59;;;;;;;3.57;2.17;;;6.60;99.90;;;;;;5089548;28;20324;-78
2023/05/03 02:39:25;;;;;;;4.05;2.47;;;6.60;99.90;;;;;;5089736;28;20032;-78
2023/05/03 02:41:50;;;;;;;7.33;2.90;;;6.60;99.90;;;;;;5089739;28;20109;-78
2023/05/03 02:44:16;;;;;;;13.63;2.60;;;6.60;99.90;;;;;;5089343;28;20036;-78
2023/05/03 02:46:42;;;;;;;4.03;2.57;;;6.60;99.90;;;;;;5072883;28;20297;-79
2023/05/03 02:49:08;;;;;;;5.50;2.80;;;6.50;99.90;;;;;;5072817;28;20048;-79
2023/05/03 02:51:34;;;;;;;3.88;2.35;;;6.50;99.90;;;;;;5089905;28;20214;-80
2023/05/03 02:54:00;;;;;;;3.80;2.50;;;6.50;99.90;;;;;;5089697;28;20571;-78
2023/05/03 02:56:26;;;;;;;4.88;2.58;;;6.50;99.90;;;;;;5086993;28;20131;-79
2023/05/03 02:58:52;;;;;;;5.70;2.67;;;6.50;99.90;;;;;;5072805;28;20050;-79
2023/05/03 03:01:18;;;;;;;4.72;3.00;;;6.50;99.90;;;;;;5072155;28;20519;-80
2023/05/03 03:03:43;;;;;;;4.93;2.60;;;6.50;99.90;;;;;;5072674;28;20498;-79
2023/05/03 03:06:09;;;;;;;3.30;2.60;;;6.50;99.90;;;;;;5072372;28;20411;-78
2023/05/03 03:08:35;;;;;;;4.68;2.88;;;6.40;99.90;;;;;;5089601;28;20040;-78
2023/05/03 03:11:02;;;;;;;;;;;6.50;99.90;;;;;;5072832;28;20140;-79
2023/05/03 03:13:28;;;;;;;4.47;2.80;;;6.50;99.90;;;;;;5087529;28;19924;-79
2023/05/03 03:15:54;;;;;;;4.90;2.92;;;6.50;99.90;;;;;;5089765;28;20393;-78
2023/05/03 03:18:20;;;;;;;4.38;2.50;;;6.40;99.90;;;;;;5075013;28;20097;-79
2023/05/03 03:20:45;;;;;;;4.72;2.80;;;6.40;99.90;;;;;;5093584;28;20452;-79
2023/05/03 03:23:11;;;;;;;4.32;2.80;;;6.40;99.90;;;;;;5090686;28;20058;-78
2023/05/03 03:25:37;;;;;;;5.50;3.10;;;6.40;99.90;;;;;;5093499;28;20043;-78
2023/05/03 03:28:03;;;;;;;6.32;2.90;;;6.40;99.90;;;;;;5075987;28;20050;-79
2023/05/03 03:30:29;;;;;;;4.60;2.67;;;6.40;99.90;;;;;;5041982;28;20078;-78
2023/05/03 03:32:54;;;;;;;5.95;3.35;;;6.40;99.90;;;;;;5076423;28;20808;-78
2023/05/03 03:35:20;;;;;;;4.87;2.80;;;6.40;99.90;;;;;;5092689;28;20052;-78
2023/05/03 03:37:46;;;;;;;7.28;2.88;;;6.40;99.90;;;;;;5076286;28;20036;-78
2023/05/03 03:40:12;;;;;;;5.53;2.88;;;6.40;99.90;;;;;;5092749;28;20379;-79
2023/05/03 03:42:39;;;;;;;6.90;3.25;;;6.30;99.90;;;;;;5093052;28;20039;-79
2023/05/03 03:45:05;;;;;;;4.68;2.60;;;6.30;99.90;;;;;;5092765;28;20040;-78
2023/05/03 03:47:31;;;;;;;4.88;2.20;;;6.30;99.90;;;;;;5092872;28;20043;-78
2023/05/03 03:50:00;;;;;;;4.13;2.40;;;6.30;99.90;;;;;;5092926;28;20042;-78
2023/05/03 03:52:26;;;;;;;5.57;2.65;;;6.30;99.90;;;;;;5090862;28;20031;-78
2023/05/03 03:54:52;;;;;;;7.22;2.50;;;6.40;99.90;;;;;;5059611;28;20067;-78
2023/05/03 03:57:18;;;;;;;3.47;2.30;;;6.40;99.90;;;;;;5058993;28;20522;-79
2023/05/03 03:59:44;;;;;;;3.40;2.00;;;6.40;99.90;;;;;;5092630;28;20040;-79
2023/05/03 04:02:09;;;;;;;2.72;2.20;;;6.40;99.90;;;;;;5092122;28;20036;-79
2023/05/03 04:04:35;;;;;;;3.17;2.08;;;6.40;99.90;;;;;;5092685;28;20051;-78
2023/05/03 04:07:01;;;;;;;2.70;2.13;;;6.40;99.90;;;;;;5092518;28;20074;-79
2023/05/03 04:09:27;;;;;;;5.20;2.50;;;6.50;99.90;;;;;;5092693;28;20278;-78
2023/05/03 04:11:53;;;;;;;4.03;1.90;;;6.50;99.90;;;;;;5075919;28;20070;-78
2023/05/03 04:14:18;;;;;;;3.53;2.00;;;6.50;99.90;;;;;;5092194;28;20043;-78
2023/05/03 04:16:44;;;;;;;4.53;1.83;;;6.50;99.90;;;;;;5091768;28;20040;-79
2023/05/03 04:19:10;;;;;;;17.07;2.13;;;6.50;99.90;;;;;;5092185;28;20352;-79
2023/05/03 04:21:35;;;;;;;3.83;2.40;;;6.50;99.90;;;;;;5089772;28;20297;-77
2023/05/03 04:24:05;;;;;;;4.03;2.43;;;6.50;99.90;;;;;;5075318;28;20082;-79
2023/05/03 04:26:31;;;;;;;6.03;2.35;;;6.40;99.90;;;;;;5092518;28;20044;-79
2023/05/03 04:28:58;;;;;;;2.80;2.08;;;6.40;99.90;;;;;;5091562;28;20039;-78
2023/05/03 04:31:24;;;;;;;4.28;2.30;;;6.40;99.90;;;;;;5091716;28;20061;-77
2023/05/03 04:33:50;;;;;;;3.30;2.20;;;6.40;99.90;;;;;;5092241;28;20051;-78
2023/05/03 04:36:15;;;;;;;7.38;2.30;;;6.40;99.90;;;;;;5092005;28;20376;-78
2023/05/03 04:38:44;;;;;;;2.43;1.93;;;6.40;99.90;;;;;;5092147;28;20044;-77
2023/05/03 04:41:10;;;;;;;3.97;2.40;;;6.40;99.90;;;;;;5074569;28;20036;-78
2023/05/03 04:43:36;;;;;;;4.03;2.30;;;6.50;99.90;;;;;;5074955;28;20085;-77
2023/05/03 04:46:03;;;;;;;3.45;2.35;;;6.50;99.90;;;;;;5091999;28;20044;-76
2023/05/03 04:48:29;;;;;;;4.95;2.30;;;6.50;99.90;;;;;;5091772;28;20417;-77
2023/05/03 04:50:55;;;;;;;4.18;2.20;;;6.60;99.90;;;;;;5074935;28;20119;-77
2023/05/03 04:53:20;;;;;;;3.20;2.40;;;6.60;99.90;;;;;;5074306;28;20113;-77
2023/05/03 04:55:46;;;;;;;4.40;2.58;;;6.60;99.90;;;;;;5093777;28;20334;-77
2023/05/03 04:58:12;;;;;;;3.30;2.50;;;6.70;99.90;;;;;;5061463;28;20069;-78
2023/05/03 05:00:40;;;;;;;3.28;2.15;;;6.80;99.90;;;;;;5094856;28;20040;-78
2023/05/03 05:03:06;;;;;;;2.63;2.17;;;6.80;99.90;;;;;;5078127;28;20092;-78
2023/05/03 05:05:32;;;;;;;4.05;2.42;;;6.90;99.90;;;;;;5095196;28;20491;-79
2023/05/03 05:07:58;;;;;;;3.40;2.20;;;6.90;99.90;;;;;;5094715;28;20104;-78
2023/05/03 05:10:24;;;;;;;3.22;2.20;;;7.00;99.90;;;;;;5094563;28;20043;-78
2023/05/03 05:12:50;;;;;;;4.28;2.20;;;7.00;99.90;;;;;;5077810;28;20130;-78
2023/05/03 05:15:16;;;;;;;3.65;2.17;;;7.10;99.90;;;;;;5077381;28;20081;-78
2023/05/03 05:17:41;;;;;;;4.47;2.13;;;7.10;99.90;;;;;;5094862;28;20032;-78
2023/05/03 05:20:11;;;;;;;4.00;2.28;;;7.20;99.90;;;;;;5094673;28;20104;-78
2023/05/03 05:22:39;;;;;;;2.30;2.10;;;7.20;99.90;;;;;;5092293;28;20146;-78
2023/05/03 05:25:06;;;;;;;4.57;2.65;;;7.30;99.90;;;;;;5078471;28;20386;-78
2023/05/03 05:27:33;;;;;;;3.88;2.20;;;7.40;99.90;;;;;;5094338;28;20043;-78
2023/05/03 05:29:58;;;;;;;;;;;7.40;99.90;;;;;;5078105;28;20039;-78
2023/05/03 05:32:24;;;;;;;2.20;2.00;;;7.50;99.90;;;;;;5094016;28;19916;-79
2023/05/03 05:34:54;;;;;;;4.00;1.65;;;7.60;99.90;;;;;;5094552;28;20031;-78
2023/05/03 05:37:21;;;;;;;3.03;1.52;;;7.60;99.90;;;;;;5094111;28;20039;-79
2023/05/03 05:39:47;;;;;;;2.22;1.48;;;7.70;99.90;;;;;;5093702;28;20044;-78
2023/05/03 05:42:13;;;;;;;2.67;1.42;;;7.70;99.90;;;;;;5093669;28;20040;-78
2023/05/03 05:44:38;;;;;;;4.68;1.45;;;7.80;99.90;;;;;;5077507;28;20046;-79
2023/05/03 05:47:05;;;;;;;1.63;1.20;;;7.80;99.90;;;;;;5077546;28;20054;-78
2023/05/03 05:49:31;;;;;;;1.63;1.30;;;7.90;99.90;;;;;;5093927;28;20043;-78
2023/05/03 05:51:57;;;;;;;3.63;1.20;;;8.00;99.90;;;;;;5094204;28;20042;-78
2023/05/03 05:54:23;;;;;;;1.75;1.13;;;8.10;99.90;;;;;;5076666;28;20067;-78
2023/05/03 05:56:49;;;;;;;1.65;1.10;;;8.20;99.90;;;;;;5093769;28;20467;-78
2023/05/03 05:59:15;;;;;;;6.97;1.75;;;8.30;99.90;;;;;;5093871;28;20047;-78
2023/05/03 06:01:44;;;;;;;2.55;1.30;;;8.30;99.90;;;;;;5093721;28;20043;-78
2023/05/03 06:04:13;;;;;;;4.38;1.10;;;8.40;99.90;;;;;;5093923;28;20043;-79
2023/05/03 06:06:39;;;;;;;1.20;0.85;;;8.50;99.90;;;;;;5076965;28;20115;-77
2023/05/03 06:09:05;;;;;;;2.22;0.93;;;8.50;99.90;;;;;;5076995;28;20498;-78
2023/05/03 06:11:32;;;;;;;1.55;0.70;;;8.60;99.90;;;;;;5092464;28;20054;-78
2023/05/03 06:13:58;;;;;;;4.82;1.05;;;8.60;99.90;;;;;;5092980;28;20058;-78
2023/05/03 06:16:24;;;;;;;1.55;1.20;;;8.70;99.90;;;;;;5092900;28;20040;-78
2023/05/03 06:18:49;;;;;;;0.97;0.80;;;8.80;99.90;;;;;;5077099;28;20069;-78
2023/05/03 06:21:15;;;;;;;2.00;1.17;;;8.90;99.90;;;;;;5093518;28;20289;-78
2023/05/03 06:23:41;;;;;;;1.13;0.80;;;8.90;99.90;;;;;;5093389;28;20039;-78
2023/05/03 06:26:07;;;;;;;2.07;0.80;;;9.00;99.90;;;;;;5076840;28;20498;-78
2023/05/03 06:28:33;;;;;;;3.25;0.80;;;9.10;99.90;;;;;;5109092;28;20092;-79
2023/05/03 06:30:59;;;;;;;;;;;9.10;99.90;;;;;;5093992;28;20040;-77
2023/05/03 06:33:25;;;;;;;3.85;1.00;;;9.10;99.90;;;;;;5093000;28;20379;-77
2023/05/03 06:35:51;;;;;;;2.78;1.00;;;9.20;99.90;;;;;;5093539;28;20077;-78
2023/05/03 06:38:17;;;;;;;4.53;1.02;;;9.30;99.90;;;;;;5093112;28;20027;-78
2023/05/03 06:40:47;;;;;;;7.45;1.00;;;9.30;99.90;;;;;;5093240;28;20116;-78
2023/05/03 06:43:13;;;;;;;4.38;0.90;;;9.20;99.90;;;;;;5093265;28;20065;-77
2023/05/03 06:45:40;;;;;;;2.40;0.80;;;9.40;99.90;;;;;;5093061;28;20523;-77
2023/05/03 06:48:06;;;;;;;6.35;1.02;;;9.40;99.90;;;;;;5093368;28;20051;-78
2023/05/03 06:50:32;;;;;;;1.95;1.00;;;9.40;99.90;;;;;;5090671;28;20089;-78
2023/05/03 06:52:57;;;;;;;1.58;0.93;;;9.50;99.90;;;;;;5093277;28;20048;-78
2023/05/03 06:55:23;;;;;;;2.97;1.00;;;9.60;99.90;;;;;;5075771;28;20081;-78
2023/05/03 06:57:51;;;;;;;2.50;1.00;;;9.70;99.90;;;;;;5093371;28;20300;-78
2023/05/03 07:00:17;;;;;;;4.70;1.23;;;9.70;99.90;;;;;;5076900;28;20342;-78
2023/05/03 07:02:43;;;;;;;;;;;9.80;99.90;;;;;;5076500;28;20059;-78
2023/05/03 07:05:09;;;;;;;3.90;0.80;;;9.70;99.90;;;;;;5093392;28;20303;-79
2023/05/03 07:07:35;;;;;;;2.20;0.88;;;9.90;99.90;;;;;;5093287;28;20051;-78
2023/05/03 07:10:01;;;;;;;2.70;0.80;;;10.00;99.90;;;;;;5075890;28;20043;-77
2023/05/03 07:12:27;;;;;;;2.10;0.90;;;9.90;99.90;;;;;;5075659;28;20042;-78
2023/05/03 07:14:56;;;;;;;2.90;0.90;;;9.80;99.90;;;;;;5075977;28;20311;-78
2023/05/03 07:17:22;;;;;;;3.15;0.73;;;9.90;99.90;;;;;;5092053;28;20457;-77
2023/05/03 07:19:49;;;;;;;3.03;0.95;;;9.90;99.90;;;;;;5092087;28;20031;-77
2023/05/03 07:22:15;;;;;;;2.58;1.08;;;10.00;99.90;;;;;;5075285;28;20047;-77
2023/05/03 07:24:40;;;;;;;1.60;0.80;;;10.10;99.90;;;;;;5089721;28;20032;-76
2023/05/03 07:27:07;;;;;;;1.90;0.70;;;10.10;99.90;;;;;;5075628;28;20068;-77
2023/05/03 07:29:33;;;;;;;3.30;0.80;;;10.20;99.90;;;;;;5092114;28;20757;-77
2023/05/03 07:31:59;;;;;;;2.20;0.80;;;10.20;99.90;;;;;;5093027;28;20039;-78
2023/05/03 07:34:25;;;;;;;2.03;1.00;;;10.20;99.90;;;;;;5092198;28;20032;-77
2023/05/03 07:36:53;;;;;;;4.55;1.05;;;10.30;99.90;;;;;;5075739;28;20150;-77
2023/05/03 07:39:18;;;;;;;3.35;0.93;;;10.30;99.90;;;;;;5092193;28;20063;-77
2023/05/03 07:41:44;;;;;;;3.73;0.80;;;10.40;99.90;;;;;;5075783;28;20071;-77
2023/05/03 07:44:10;;;;;;;2.42;0.95;;;10.40;99.90;;;;;;5093241;28;20111;-77
2023/05/03 07:46:36;;;;;;;1.30;0.60;;;10.50;99.90;;;;;;5092600;28;20036;-77
2023/05/03 07:49:03;;;;;;;2.42;0.82;;;10.60;99.90;;;;;;5092743;28;20043;-77
2023/05/03 07:51:31;;;;;;;4.55;1.00;;;10.60;99.90;;;;;;5075795;28;20040;-77
2023/05/03 07:53:57;;;;;;;4.07;0.90;;;10.70;99.90;;;;;;5075964;28;20036;-78
2023/05/03 07:56:23;;;;;;;6.95;1.13;;;10.70;99.90;;;;;;5072174;28;20055;-76
2023/05/03 07:58:49;;;;;;;2.08;0.80;;;10.70;99.90;;;;;;5072328;28;20044;-77
2023/05/03 08:01:15;;;;;;;1.60;0.95;;;10.60;99.90;;;;;;5089659;28;20035;-77
2023/05/03 08:03:42;;;;;;;2.47;0.90;;;10.70;99.90;;;;;;5090668;28;20047;-77
2023/05/03 08:06:08;;;;;;;1.50;0.82;;;10.60;99.90;;;;;;5076288;28;20082;-77
2023/05/03 08:08:35;;;;;;;4.07;0.70;;;10.80;99.90;;;;;;5092560;28;20110;-77
2023/05/03 08:11:01;;;;;;;4.63;0.80;;;10.90;99.90;;;;;;5076306;28;20040;-77
2023/05/03 08:13:26;;;;;;;5.70;0.75;;;11.10;99.90;;;;;;5093331;28;20114;-77
2023/05/03 08:15:52;;;;;;;2.83;0.90;;;11.20;99.90;;;;;;5076042;28;20047;-77
2023/05/03 08:18:18;;;;;;;1.33;0.50;;;11.10;99.90;;;;;;5092649;28;20297;-77
2023/05/03 08:20:44;;;;;;;3.77;0.70;;;11.10;99.90;;;;;;5075451;28;20278;-77
2023/05/03 08:23:10;;;;;;;2.63;0.73;;;11.10;99.90;;;;;;5092864;28;20036;-76
2023/05/03 08:25:36;;;;;;;1.73;0.55;;;10.70;99.90;;;;;;5075551;28;20062;-77
2023/05/03 08:28:02;;;;;;;3.53;0.85;;;11.00;99.90;;;;;;5076079;28;20103;-78
2023/05/03 08:30:29;;;;;;;4.80;0.85;;;11.00;99.90;;;;;;5092400;28;20054;-78
2023/05/03 08:32:55;;;;;;;2.95;0.90;;;11.00;99.90;;;;;;5075933;28;20434;-77
2023/05/03 08:35:20;;;;;;;3.50;0.70;;;11.00;99.90;;;;;;5092302;28;20078;-77
2023/05/03 08:37:46;;;;;;;1.05;0.60;;;10.90;99.90;;;;;;5092293;28;20098;-77
2023/05/03 08:40:13;;;;;;;1.70;1.02;;;10.80;99.90;;;;;;5092328;28;20127;-77
2023/05/03 08:42:44;;;;;;;2.35;0.80;;;10.80;99.90;;;;;;5092247;28;20046;-77
2023/05/03 08:45:13;;;;;;;3.38;0.85;;;10.90;99.90;;;;;;5092298;28;20074;-76
2023/05/03 08:47:40;;;;;;;2.75;1.00;;;10.90;99.90;;;;;;5093048;28;20036;-77
2023/05/03 08:50:08;;;;;;;2.58;0.98;;;10.80;99.90;;;;;;5089723;28;20048;-78
2023/05/03 08:52:34;;;;;;;1.63;0.60;;;10.90;99.90;;;;;;5091865;28;20060;-77
2023/05/03 08:54:59;;;;;;;1.33;0.90;;;10.90;99.90;;;;;;5091984;28;20447;-77
2023/05/03 08:57:26;;;;;;;1.60;0.90;;;11.00;99.90;;;;;;5089672;28;20389;-76
2023/05/03 08:59:55;;;;;;;2.88;0.90;;;11.00;99.90;;;;;;5091013;28;20051;-76
2023/05/03 09:02:21;;;;;;;2.00;1.13;;;11.00;99.90;;;;;;5091075;28;20044;-78
2023/05/03 09:04:47;;;;;;;2.92;1.02;;;10.90;99.90;;;;;;5089926;28;20058;-77
2023/05/03 09:07:15;;;;;;;1.77;0.93;;;10.90;99.90;;;;;;5090601;28;20048;-76
2023/05/03 09:09:42;;;;;;;2.47;0.90;;;11.00;99.90;;;;;;5089807;28;20338;-77
2023/05/03 09:12:08;;;;;;;1.75;0.80;;;11.00;99.90;;;;;;5090221;28;20047;-77
2023/05/03 09:14:54;;;;;;;1.75;0.95;;;11.00;99.90;;;;;;5089227;28;20047;-78
2023/05/03 09:17:20;;;;;;;2.40;0.95;;;11.10;99.90;;;;;;5084582;28;20155;-77
2023/05/03 09:19:52;;;;;;;3.92;1.00;;;11.00;99.90;;;;;;5082183;28;20101;-77
2023/05/03 09:22:18;;;;;;;3.80;1.10;;;11.10;99.90;;;;;;5084181;28;20032;-77
2023/05/03 09:25:11;;;;;;;2.00;0.93;;;11.10;99.90;;;;;;5089386;28;20036;-77
2023/05/03 09:27:36;;;;;;;2.10;1.10;;;11.20;99.90;;;;;;5084997;28;20040;-77
2023/05/03 09:30:17;;;;;;;1.87;0.90;;;11.20;99.90;;;;;;5089339;28;20059;-77
2023/05/03 09:32:48;;;;;;;5.28;1.10;;;11.30;99.90;;;;;;5071262;28;20051;-77
2023/05/03 09:35:15;;;;;;;2.38;1.10;;;11.30;99.90;;;;;;5089082;28;20554;-77
2023/05/03 09:37:40;;;;;;;2.40;1.17;;;11.40;99.90;;;;;;5072948;28;20456;-77
2023/05/03 09:40:07;;;;;;;2.17;1.10;;;11.40;99.90;;;;;;5090635;28;20035;-77
2023/05/03 09:42:33;;;;;;;2.58;1.40;;;11.50;99.90;;;;;;5057346;28;20043;-77
2023/05/03 09:44:59;;;;;;;1.73;1.20;;;11.60;99.90;;;;;;5090326;28;20480;-78
2023/05/03 09:47:27;;;;;;;2.15;1.10;;;11.70;99.90;;;;;;5073735;28;20043;-77
2023/05/03 09:49:53;;;;;;;4.07;1.20;;;11.70;99.90;;;;;;5090251;28;20384;-77
2023/05/03 09:52:21;;;;;;;3.67;1.00;;;11.70;99.90;;;;;;5090671;28;20537;-77
2023/05/03 09:54:48;;;;;;;4.60;1.10;;;11.80;99.90;;;;;;5090092;28;20052;-78
2023/05/03 09:57:14;;;;;;;3.88;1.30;;;11.90;99.90;;;;;;5089895;28;20572;-76
2023/05/03 09:59:41;;;;;;;3.28;1.20;;;11.80;99.90;;;;;;5089899;28;20040;-77
2023/05/03 10:02:07;;;;;;;2.95;1.17;;;11.90;99.90;;;;;;5090444;28;20515;-76
2023/05/03 10:04:43;;;;;;;;;;;11.90;99.90;;;;;;5090986;28;20456;-78
2023/05/03 10:07:13;;;;;;;3.58;1.10;;;11.90;99.90;;;;;;5089162;28;19985;-76
2023/05/03 10:09:43;;;;;;;1.73;1.13;;;12.10;99.90;;;;;;5072183;28;20043;-77
2023/05/03 10:12:11;;;;;;;4.22;1.10;;;12.10;99.90;;;;;;5073119;28;20044;-76
2023/05/03 10:14:41;;;;;;;1.45;0.90;;;12.20;99.90;;;;;;5089659;28;20050;-76
2023/05/03 10:17:14;;;;;;;5.38;0.95;;;12.30;99.90;;;;;;5072877;28;20131;-77
2023/05/03 10:19:53;;;;;;;2.60;1.00;;;12.30;99.90;;;;;;5072351;28;20044;-77
2023/05/03 10:22:18;;;;;;;7.72;1.35;;;12.30;99.90;;;;;;5089922;28;20509;-77
2023/05/03 10:25:06;;;;;;;3.15;0.93;;;12.30;99.90;;;;;;5089406;28;20040;-78
2023/05/03 10:27:47;;;;;;;2.40;0.95;;;12.10;99.90;;;;;;5089346;28;20050;-78
2023/05/03 10:30:36;;;;;;;3.53;1.00;;;12.30;99.90;;;;;;5089532;28;20052;-77
2023/05/03 10:33:16;;;;;;;6.07;1.08;;;12.30;99.90;;;;;;5087174;28;20078;-77
2023/05/03 10:35:52;;;;;;;2.85;0.90;;;12.40;99.90;;;;;;5087029;28;20052;-77
2023/05/03 10:38:28;;;;;;;3.50;1.10;;;12.60;99.90;;;;;;5089769;28;20032;-77
2023/05/03 10:40:55;;;;;;;4.35;0.88;;;13.00;99.90;;;;;;5089155;28;20032;-76
2023/05/03 10:43:30;;;;;;;2.90;1.13;;;13.10;99.90;;;;;;5072549;28;20036;-77
2023/05/03 10:46:00;;;;;;;2.30;0.90;;;13.30;99.90;;;;;;5089596;28;20044;-76
2023/05/03 10:48:27;;;;;;;2.28;0.90;;;13.50;99.90;;;;;;5089647;28;20057;-77
2023/05/03 10:50:53;;;;;;;2.03;0.90;;;13.70;99.90;;;;;;5089193;28;20093;-77
2023/05/03 10:53:36;;;;;;;;;;;13.70;99.90;;;;;;5090168;28;20577;-77
2023/05/03 10:56:09;;;;;;;2.85;0.95;;;13.70;99.90;;;;;;5089650;28;20279;-78
2023/05/03 10:58:42;;;;;;;3.15;0.98;;;13.40;99.90;;;;;;5093014;28;20054;-77
2023/05/03 11:01:10;;;;;;;2.90;0.80;;;13.50;99.90;;;;;;5092297;28;20046;-76
2023/05/03 11:03:43;;;;;;;2.95;1.00;;;13.60;99.90;;;;;;5092993;28;20054;-77
2023/05/03 11:06:09;;;;;;;2.33;0.80;;;13.70;99.90;;;;;;5092519;28;20093;-77
2023/05/03 11:08:37;;;;;;;2.65;0.90;;;13.90;99.90;;;;;;5093386;28;20475;-77
2023/05/03 11:11:08;;;;;;;1.60;1.02;;;14.00;99.90;;;;;;5075805;28;20391;-76
2023/05/03 11:13:37;;;;;;;4.15;0.90;;;14.20;99.90;;;;;;5091203;28;20078;-76
2023/05/03 11:16:06;;;;;;;2.33;0.70;;;14.40;99.50;;;;;;5092333;28;20050;-76
2023/05/03 11:18:32;;;;;;;2.80;0.82;;;14.60;99.90;;;;;;5075978;28;20028;-77
2023/05/03 11:20:58;;;;;;;2.08;0.90;;;14.40;99.50;;;;;;5092155;28;20096;-76
2023/05/03 11:23:27;;;;;;;3.35;0.98;;;14.50;99.80;;;;;;5092696;28;20040;-77
2023/05/03 11:25:53;;;;;;;5.40;1.20;;;14.40;99.80;;;;;;5091793;28;20054;-76
2023/05/03 11:28:19;;;;;;;;;;;14.30;99.00;;;;;;5092553;28;20048;-77
2023/05/03 11:30:45;;;;;;;3.42;0.85;;;14.30;99.60;;;;;;5075326;28;19916;-76
2023/05/03 11:33:11;;;;;;;;;;;14.50;99.60;;;;;;5092075;28;20042;-76
2023/05/03 11:35:37;;;;;;;1.60;0.90;;;14.60;99.80;;;;;;5119849;28;19916;-77
2023/05/03 11:38:03;;;;;;;2.83;1.05;;;14.60;99.70;;;;;;5092492;28;20035;-76
2023/05/03 11:40:29;;;;;;;2.88;0.95;;;14.50;99.00;;;;;;5095905;28;20039;-76
2023/05/03 11:42:57;;;;;;;6.30;1.10;;;14.20;99.00;;;;;;5078636;28;20587;-76
2023/05/03 11:45:38;;;;;;;3.92;1.02;;;14.00;98.50;;;;;;5095807;28;20065;-76
2023/05/03 11:48:04;;;;;;;4.35;0.88;;;14.10;98.90;;;;;;5124824;27;20040;-76
2023/05/03 11:50:52;;;;;;;2.45;0.93;;;14.50;99.00;;;;;;5078706;28;20485;-76
2023/05/03 11:53:18;;;;;;;2.67;1.00;;;14.60;99.30;;;;;;5079638;28;20047;-77
2023/05/03 11:55:49;;;;;;;2.28;1.05;;;14.90;98.90;;;;;;5096225;28;20092;-76
2023/05/03 11:58:23;;;;;;;2.63;1.00;;;15.10;97.80;;;;;;5096278;28;20089;-77
2023/05/03 12:00:50;;;;;;;4.20;1.08;;;15.50;97.30;;;;;;5094088;28;20048;-77
2023/05/03 12:03:21;;;;;;;3.45;0.90;;;15.80;96.50;;;;;;5096077;28;20380;-77
2023/05/03 12:05:48;;;;;;;3.13;0.90;;;16.30;96.90;;;;;;5079297;28;20043;-77
2023/05/03 12:08:17;;;;;;;2.35;0.75;;;16.40;97.40;;;;;;5095831;28;20463;-77
2023/05/03 12:10:44;;;;;;;1.98;1.02;;;16.00;96.80;;;;;;5079192;28;20047;-77
2023/05/03 12:13:10;;;;;;;2.72;0.80;;;15.80;97.70;;;;;;5095600;28;20134;-76
2023/05/03 12:15:38;;;;;;;4.55;1.10;;;15.70;97.90;;;;;;5095178;28;20051;-76
2023/05/03 12:18:09;;;;;;;3.10;0.90;;;15.90;97.60;;;;;;5094944;28;20541;-77
2023/05/03 12:20:36;;;;;;;3.85;1.10;;;15.30;97.80;;;;;;5095642;28;20051;-77
2023/05/03 12:23:09;;;;;;;2.40;0.80;;;15.20;98.10;;;;;;5076293;28;20088;-77
2023/05/03 12:25:36;;;;;;;4.53;1.23;;;15.10;98.30;;;;;;5095672;28;20112;-76
2023/05/03 12:28:04;;;;;;;3.08;1.10;;;14.80;98.40;;;;;;5095052;28;20078;-77
2023/05/03 12:30:30;;;;;;;2.85;1.00;;;14.80;99.10;;;;;;5095575;28;20036;-76
2023/05/03 12:32:56;;;;;;;;;;;14.60;99.60;;;;;;5095613;28;20071;-77
2023/05/03 12:35:22;;;;;;;4.03;1.40;;;14.60;99.20;;;;;;5095322;28;19969;-77
2023/05/03 12:37:49;;;;;;;3.33;1.23;;;14.60;98.70;;;;;;5092942;28;20067;-76
2023/05/03 12:40:17;;;;;;;4.80;1.20;;;14.50;98.40;;;;;;5078502;28;20035;-77
2023/05/03 12:42:43;;;;;;;2.42;1.30;;;14.60;99.70;;;;;;5095582;28;20082;-76
2023/05/03 12:45:10;;;;;;;4.40;1.15;;;14.20;98.80;;;;;;5078380;28;20039;-77
2023/05/03 12:47:36;;;;;;;4.88;1.40;;;14.40;99.60;;;;;;5095404;28;20046;-77
2023/05/03 12:50:03;;;;;;;2.95;1.50;;;14.10;98.90;;;;;;5061233;28;20082;-78
2023/05/03 12:52:30;;;;;;;3.88;1.30;;;13.80;99.30;;;;;;5095417;28;20112;-77
2023/05/03 12:54:57;;;;;;;2.75;1.30;;;13.90;99.20;;;;;;5094950;28;20079;-77
2023/05/03 12:57:23;;;;;;;6.22;1.30;;;14.10;99.90;;;;;;5094754;28;20079;-78